Terminal Aerodrome Forecast
Issued by NWS

Current Version | Previous Version | Text Only | Print | Product List | Glossary Off
Versions: 1 2 3 4 5 6 7 8 9 10 11 12 13 14 15 16 17 18 19 20 21 22 23 24

000
FTUS41 KILN 232200 AAA
TAFLCK
TAF AMD
KLCK 232212Z 2322/2418 00000KT P6SM OVC015
     FM240100 12004KT 5SM -SHRA BR OVC012
     FM240700 13008KT 5SM BR OVC011
     FM241300 14012KT 5SM BR VCSH OVC013
     FM241700 17015G23KT 5SM -SHRA BR OVC012=

USA.gov is the U.S. government's official web portal to all federal, state and local government web resources and services.